メインページ
METAR-TAF:

METAR-TAF

空港 :

テルアビブ / ベン・グリオン, イスラエル

ベン・グリオン国際空港

緯度: 32-00N, 経度: 034-54E, 海抜: 40m

現時点の気象観測

当レポートは31分前の20:20(UTC)に作成
変向風 3kt
気温 13°C
湿度 54%
気圧 1021 hPa
視程10km以上
1,500メートル以下は雲なし、積乱雲なし

METAR: LLBG 112020Z VRB03KT CAVOK 13/04 Q1021 NOSIG RMK OBS 1500FT-TEMP 23C

時間: 22:51 (20:51 UTC)

予報

当レポートは3時間33分前の17:18(UTC)に作成
予報は11日の 18時(UTC)から 12日の 18時(UTC)まで有効
北/北東の風 5kt
視程10km以上
1,500メートル以下は雲なし、積乱雲なし
11日の 19時(UTC)から 11日の 21時(UTC)まで徐々に
東/南東の風 7kt
確率 40%
12日の 03時(UTC)から 12日の 09時(UTC)まで
東/南東の風 15kt
12日の 10時(UTC)から 12日の 15時(UTC)まで一時的に
北/北西の風 6kt

TAF: LLBG 111718Z 1118/1218 03005KT CAVOK BECMG 1119/1121 12007KT PROB40 1203/1209 12015KT TEMPO 1210/1215 34006KT TX28/1212Z TN13/1204Z

4,000以上の空港の気象観測と天気予報(METAR報とTAF報)

利用可能な観測所は地図上に黄色い丸と赤い丸で示す。

丸の上にカーソルを重ねると観測所名を参照できる。

次にクリックすると気象観測と天気予報を参照できる。

マップの切り替え:黒色「×」印の緑ボタンをクリックして拡大、「-」印の緑ボタンをクリックして縮小、緑色の三角印をクリックして隣りの地図に切り替え


METAR-TAF: